Time;durP1;ratioP1;P1;durP2;ratioP2;P2;SDS_P1;SDS_P2;PMS_P1;PMS_P2;Temp;Humidity;BMP_temperature;BMP_pressure;BME280_temperature;BME280_humidity;BME280_pressure;Samples;Min_cycle;Max_cycle;Signal;HPM_P1;HPM_P2
2022/02/02 00:05:11;;;;;;;9.77;3.97;;;8.60;99.90;;;;;;5034136;28;20430;-80
2022/02/02 00:07:49;;;;;;;16.30;5.37;;;8.40;99.90;;;;;;5032720;28;20506;-80
2022/02/02 00:10:41;;;;;;;9.50;3.13;;;8.30;99.90;;;;;;5032979;28;20463;-79
2022/02/02 00:13:05;;;;;;;19.23;4.17;;;8.10;99.90;;;;;;5035008;28;20442;-80
2022/02/02 00:15:51;;;;;;;16.57;4.63;;;8.00;99.90;;;;;;5033346;28;20407;-77
2022/02/02 00:21:15;;;;;;;9.80;3.73;;;7.80;99.90;;;;;;5034218;28;20514;-79
2022/02/02 00:23:45;;;;;;;19.13;5.17;;;7.70;99.90;;;;;;5033029;28;20832;-78
2022/02/02 00:26:17;;;;;;;14.37;4.73;;;7.70;99.90;;;;;;5033021;28;20427;-79
2022/02/02 00:28:51;;;;;;;12.90;4.27;;;7.70;99.90;;;;;;5033165;28;20459;-78
2022/02/02 00:31:23;;;;;;;14.80;4.40;;;7.60;99.90;;;;;;5032959;28;20477;-78
2022/02/02 00:33:55;;;;;;;14.40;4.20;;;7.60;99.90;;;;;;5032718;28;20446;-79
2022/02/02 00:36:25;;;;;;;10.20;3.93;;;7.60;99.90;;;;;;5032697;28;20446;-78
2022/02/02 00:38:52;;;;;;;14.13;3.73;;;7.60;99.90;;;;;;5033166;28;20438;-78
2022/02/02 00:41:18;;;;;;;15.53;4.33;;;7.60;99.90;;;;;;5033006;28;20419;-78
2022/02/02 00:43:47;;;;;;;17.13;3.90;;;7.60;99.90;;;;;;5033164;28;20463;-79
2022/02/02 00:46:14;;;;;;;19.53;4.07;;;7.60;99.90;;;;;;5033131;28;20419;-79
2022/02/02 00:48:48;;;;;;;15.50;4.17;;;7.60;99.90;;;;;;5033727;28;20463;-80
2022/02/02 00:51:19;;;;;;;20.57;5.70;;;7.60;99.90;;;;;;5033359;28;20423;-78
2022/02/02 00:53:45;;;;;;;14.43;3.80;;;7.60;99.90;;;;;;5033461;28;20530;-80
2022/02/02 00:56:11;;;;;;;19.03;5.77;;;7.60;99.90;;;;;;5034214;28;20546;-80
2022/02/02 00:58:36;;;;;;;14.17;3.77;;;7.60;99.90;;;;;;5034350;28;20331;-80
2022/02/02 01:01:02;;;;;;;12.20;4.57;;;7.60;99.90;;;;;;5033837;28;20789;-80
2022/02/02 01:03:29;;;;;;;13.27;4.70;;;7.60;99.90;;;;;;5034110;28;20208;-79
2022/02/02 01:05:54;;;;;;;13.20;5.60;;;7.60;99.90;;;;;;5034226;28;20188;-79
2022/02/02 01:19:28;;;;;;;13.63;3.73;;;7.60;99.90;;;;;;5039569;28;20421;-80
2022/02/02 01:30:10;;;;;;;20.07;4.90;;;7.60;99.90;;;;;;5038170;28;20548;-80
2022/02/02 01:32:36;;;;;;;12.43;4.10;;;7.60;99.90;;;;;;5036304;28;20447;-80
2022/02/02 01:35:02;;;;;;;26.70;6.03;;;7.70;99.90;;;;;;5036053;28;20415;-80
2022/02/02 01:37:28;;;;;;;21.67;6.67;;;7.70;99.90;;;;;;5035329;28;20431;-80
2022/02/02 01:40:01;;;;;;;10.83;4.10;;;7.80;99.90;;;;;;5035947;28;20429;-79
2022/02/02 01:42:34;;;;;;;12.17;4.70;;;7.90;99.90;;;;;;5035617;28;20457;-80
2022/02/02 01:45:09;;;;;;;20.50;5.10;;;7.90;99.90;;;;;;5035935;28;21002;-79
2022/02/02 01:47:49;;;;;;;18.40;5.90;;;8.00;99.90;;;;;;5035168;28;20780;-80
2022/02/02 01:50:23;;;;;;;13.60;4.10;;;8.00;99.90;;;;;;5035126;28;20474;-78
2022/02/02 01:55:38;;;;;;;11.67;5.00;;;8.10;99.90;;;;;;5036739;28;20433;-79
2022/02/02 01:58:29;;;;;;;14.27;5.70;;;8.20;99.90;;;;;;5035134;28;20450;-79
2022/02/02 02:00:55;;;;;;;13.47;4.03;;;8.20;99.90;;;;;;5035029;28;20418;-78
2022/02/02 02:03:21;;;;;;;24.80;6.67;;;8.20;99.90;;;;;;5034737;28;20458;-80
2022/02/02 02:05:47;;;;;;;18.70;4.40;;;8.20;99.90;;;;;;5034810;28;20270;-80
2022/02/02 02:08:14;;;;;;;11.40;4.73;;;8.20;99.90;;;;;;5034248;28;20177;-78
2022/02/02 02:10:40;;;;;;;14.77;5.00;;;8.20;99.90;;;;;;5034546;28;20177;-80
2022/02/02 02:13:18;;;;;;;18.53;4.77;;;8.20;99.90;;;;;;5034197;28;20510;-78
2022/02/02 02:15:45;;;;;;;17.93;4.30;;;8.20;99.90;;;;;;5034272;28;20426;-78
2022/02/02 02:18:11;;;;;;;11.27;4.27;;;8.20;99.90;;;;;;5034012;28;20837;-80
2022/02/02 02:20:38;;;;;;;15.27;3.93;;;8.20;99.90;;;;;;5034335;28;20418;-79
2022/02/02 02:23:04;;;;;;;13.83;4.17;;;8.20;99.90;;;;;;5034049;28;20438;-80
2022/02/02 02:25:32;;;;;;;18.33;6.83;;;8.20;99.90;;;;;;5033334;28;20435;-78
2022/02/02 02:28:12;;;;;;;12.30;4.03;;;8.20;99.90;;;;;;5033967;28;20418;-79
2022/02/02 02:57:16;;;;;;;13.03;4.90;;;8.10;99.90;;;;;;5038796;28;20565;-80
2022/02/02 02:59:58;;;;;;;18.77;4.50;;;8.10;99.90;;;;;;5038094;28;20434;-80
2022/02/02 03:52:11;;;;;;;15.13;4.43;;;8.20;99.90;;;;;;5037427;28;20968;-80
2022/02/02 04:06:58;;;;;;;14.20;4.63;;;8.10;99.90;;;;;;5037448;28;20406;-80
2022/02/02 04:09:25;;;;;;;10.67;3.40;;;8.10;99.90;;;;;;5036381;28;20501;-80
2022/02/02 04:12:44;;;;;;;13.07;4.40;;;8.10;99.90;;;;;;5036835;28;20411;-82
2022/02/02 04:15:55;;;;;;;13.10;4.40;;;8.10;99.90;;;;;;5024816;28;20419;-81
2022/02/02 04:53:45;;;;;;;15.03;4.60;;;8.20;99.90;;;;;;5037520;28;20866;-79
2022/02/02 04:55:47;;;;;;;16.97;5.00;;;8.20;99.90;;;;;;5032916;28;20419;-80
2022/02/02 04:58:28;;;;;;;12.50;6.10;;;8.10;99.90;;;;;;5035437;28;20517;-80
2022/02/02 05:01:44;;;;;;;13.73;4.03;;;8.10;99.90;;;;;;5036088;28;20496;-79
2022/02/02 05:04:10;;;;;;;22.53;4.80;;;8.10;99.90;;;;;;5036465;28;20443;-80
2022/02/02 05:06:52;;;;;;;13.27;4.27;;;8.20;99.90;;;;;;5035752;28;20769;-79
2022/02/02 05:09:33;;;;;;;15.00;4.00;;;8.20;99.90;;;;;;5035390;28;20553;-79
2022/02/02 05:52:37;;;;;;;17.20;3.60;;;8.10;99.90;;;;;;5035687;28;20522;-79
2022/02/02 05:55:03;;;;;;;12.07;4.57;;;8.10;99.90;;;;;;5033999;28;20447;-79
2022/02/02 05:57:32;;;;;;;15.90;5.07;;;8.10;99.90;;;;;;5033785;28;20264;-80
2022/02/02 05:59:59;;;;;;;28.50;6.43;;;8.10;99.90;;;;;;5033586;28;20446;-78
2022/02/02 06:02:33;;;;;;;18.40;4.80;;;8.20;99.90;;;;;;5033620;28;20492;-79
2022/02/02 06:05:07;;;;;;;16.13;5.27;;;8.20;99.90;;;;;;5034020;28;20454;-79
2022/02/02 06:07:38;;;;;;;17.57;4.40;;;8.20;99.90;;;;;;5033868;28;20435;-80
2022/02/02 06:10:08;;;;;;;20.73;6.10;;;8.20;99.90;;;;;;5033993;28;20642;-79
2022/02/02 06:12:34;;;;;;;16.73;4.80;;;8.20;99.90;;;;;;5033968;28;20508;-80
2022/02/02 06:15:08;;;;;;;9.80;4.40;;;8.20;99.90;;;;;;5034651;28;20838;-79
2022/02/02 06:17:38;;;;;;;30.67;5.70;;;8.30;99.90;;;;;;5034015;28;20419;-78
2022/02/02 06:20:05;;;;;;;11.40;4.60;;;8.30;99.90;;;;;;5034175;28;20435;-79
2022/02/02 06:22:32;;;;;;;14.00;5.00;;;8.30;99.90;;;;;;5033783;28;20908;-79
2022/02/02 06:25:09;;;;;;;19.33;5.30;;;8.30;99.90;;;;;;5034435;28;20474;-80
2022/02/02 06:27:41;;;;;;;12.10;4.67;;;8.30;99.90;;;;;;5034016;28;20431;-79
2022/02/02 06:30:09;;;;;;;14.80;4.27;;;8.30;99.90;;;;;;5034459;28;20481;-78
2022/02/02 06:32:50;;;;;;;12.90;5.20;;;8.30;99.90;;;;;;5034458;28;20442;-78
2022/02/02 06:35:16;;;;;;;12.10;4.53;;;8.30;99.90;;;;;;5062339;22;20500;-76
2022/02/02 06:37:43;;;;;;;22.37;7.97;;;8.30;99.90;;;;;;5055339;28;20421;-76
2022/02/02 06:40:11;;;;;;;17.17;4.73;;;8.30;99.90;;;;;;5055240;28;20908;-76
2022/02/02 06:42:39;;;;;;;15.23;4.70;;;8.30;99.90;;;;;;5055212;28;20828;-76
2022/02/02 06:45:07;;;;;;;18.93;4.90;;;8.30;99.90;;;;;;5055075;28;20419;-76
2022/02/02 06:47:34;;;;;;;15.40;5.37;;;8.20;99.90;;;;;;5055010;28;20478;-76
2022/02/02 06:50:23;;;;;;;14.50;5.13;;;8.20;99.90;;;;;;5055057;28;20465;-76
2022/02/02 06:53:07;;;;;;;11.23;4.27;;;8.30;99.90;;;;;;5072698;28;20862;-76
2022/02/02 06:55:44;;;;;;;13.77;4.00;;;8.30;99.90;;;;;;5054976;28;20490;-76
2022/02/02 06:58:32;;;;;;;17.50;4.73;;;8.20;99.90;;;;;;5054879;28;20843;-76
2022/02/02 07:01:28;;;;;;;10.70;4.07;;;8.20;99.90;;;;;;5054790;28;20932;-76
2022/02/02 07:04:04;;;;;;;18.30;4.17;;;8.20;99.90;;;;;;5071618;28;20444;-76
2022/02/02 07:11:44;;;;;;;12.40;4.43;;;8.10;99.90;;;;;;5072509;28;20500;-76
2022/02/02 07:14:20;;;;;;;13.33;4.70;;;8.10;99.90;;;;;;5054550;28;20436;-76
2022/02/02 07:24:52;;;;;;;16.73;4.77;;;8.00;99.90;;;;;;5072288;28;20428;-76
2022/02/02 07:30:11;;;;;;;12.63;4.43;;;8.00;99.90;;;;;;5072261;28;20456;-76
2022/02/02 07:32:48;;;;;;;15.90;4.60;;;8.00;99.90;;;;;;5054137;28;20789;-76
2022/02/02 07:35:25;;;;;;;19.13;4.90;;;7.90;99.90;;;;;;5054017;28;20438;-76
2022/02/02 07:37:55;;;;;;;10.93;3.77;;;7.90;99.90;;;;;;5054077;28;20417;-76
2022/02/02 07:40:22;;;;;;;19.43;4.53;;;7.90;99.90;;;;;;5054081;28;20494;-76
2022/02/02 07:42:50;;;;;;;14.83;4.47;;;7.90;99.90;;;;;;5054029;28;20441;-76
2022/02/02 07:45:19;;;;;;;15.20;4.63;;;8.00;99.90;;;;;;5053905;28;20413;-76
2022/02/02 07:48:03;;;;;;;18.77;4.20;;;8.00;99.90;;;;;;5053927;28;20512;-76
2022/02/02 07:50:33;;;;;;;12.27;5.40;;;7.90;99.90;;;;;;5053945;28;20487;-76
2022/02/02 07:53:05;;;;;;;20.10;5.23;;;8.00;99.90;;;;;;5053858;28;20997;-76
2022/02/02 07:55:32;;;;;;;19.63;4.77;;;7.90;99.90;;;;;;5053944;28;20453;-76
2022/02/02 07:58:01;;;;;;;17.83;3.77;;;7.90;99.90;;;;;;5053635;28;20409;-76
2022/02/02 08:00:27;;;;;;;8.93;3.70;;;8.00;99.90;;;;;;5054041;28;20421;-76
2022/02/02 08:05:27;;;;;;;14.13;4.57;;;8.10;99.90;;;;;;5071821;28;20401;-76
2022/02/02 08:08:07;;;;;;;13.60;3.90;;;8.10;99.90;;;;;;5053811;28;20486;-76
2022/02/02 08:10:36;;;;;;;13.10;6.77;;;8.20;99.90;;;;;;5053880;28;20468;-76
2022/02/02 08:13:10;;;;;;;8.50;3.80;;;8.30;99.90;;;;;;5053685;28;20783;-76
2022/02/02 08:15:36;;;;;;;12.53;3.60;;;8.40;99.90;;;;;;5053651;28;20833;-76
2022/02/02 08:18:02;;;;;;;18.73;5.50;;;8.40;99.90;;;;;;5053597;28;20474;-76
2022/02/02 08:20:29;;;;;;;15.87;5.77;;;8.50;99.90;;;;;;5071606;28;20650;-76
2022/02/02 08:22:54;;;;;;;14.63;3.83;;;8.60;99.90;;;;;;5053461;28;20449;-76
2022/02/02 08:25:28;;;;;;;16.77;4.53;;;8.60;99.90;;;;;;5057387;28;20512;-76
2022/02/02 08:27:58;;;;;;;16.17;4.70;;;8.70;99.90;;;;;;5057741;28;20210;-76
2022/02/02 08:30:26;;;;;;;15.90;4.10;;;8.70;99.90;;;;;;5057537;28;20494;-76
2022/02/02 08:32:57;;;;;;;13.20;4.10;;;8.70;99.90;;;;;;5057660;28;20444;-76
2022/02/02 08:35:25;;;;;;;10.57;3.73;;;8.70;99.90;;;;;;5057290;28;20433;-76
2022/02/02 08:40:34;;;;;;;12.53;3.90;;;8.50;99.90;;;;;;5075585;28;20405;-76
2022/02/02 08:43:07;;;;;;;6.97;3.70;;;8.70;99.90;;;;;;5057455;28;20445;-76
2022/02/02 08:45:36;;;;;;;10.03;4.03;;;8.80;99.90;;;;;;5057286;28;20459;-76
2022/02/02 08:48:07;;;;;;;11.37;4.20;;;9.00;99.90;;;;;;5057191;28;20974;-76
2022/02/02 08:50:47;;;;;;;10.13;3.57;;;9.00;99.90;;;;;;5057309;28;20505;-76
2022/02/02 08:56:36;;;;;;;13.93;4.30;;;9.10;99.90;;;;;;5075355;28;20408;-76
2022/02/02 09:01:20;;;;;;;13.80;4.50;;;9.50;99.90;;;;;;5075083;28;20409;-76
2022/02/02 09:06:30;;;;;;;15.00;4.40;;;9.60;99.90;;;;;;5074982;28;20407;-76
2022/02/02 09:20:20;;;;;;;12.57;4.63;;;9.80;99.90;;;;;;5075373;28;20937;-76
2022/02/02 09:25:21;;;;;;;22.20;5.80;;;9.90;99.90;;;;;;5074662;28;20413;-76
2022/02/02 09:33:51;;;;;;;14.90;6.10;;;9.90;99.90;;;;;;5074916;28;21053;-76
2022/02/02 09:36:15;;;;;;;15.27;4.93;;;9.80;99.90;;;;;;5056141;28;20460;-76
2022/02/02 09:38:40;;;;;;;14.70;5.30;;;10.00;99.90;;;;;;5056367;28;20420;-76
2022/02/02 09:43:37;;;;;;;16.23;5.80;;;10.00;99.90;;;;;;5074281;28;20604;-76
2022/02/02 09:46:08;;;;;;;18.03;4.37;;;10.20;99.90;;;;;;5056137;28;20512;-76
2022/02/02 09:48:45;;;;;;;16.20;5.93;;;10.40;99.90;;;;;;5056355;28;20988;-76
2022/02/02 09:51:15;;;;;;;16.03;4.80;;;10.30;99.90;;;;;;5056188;28;20432;-76
2022/02/02 09:53:51;;;;;;;16.30;6.60;;;10.30;99.90;;;;;;5056186;28;20571;-76
2022/02/02 10:04:35;;;;;;;13.63;4.43;;;10.50;99.90;;;;;;5074040;28;21063;-76
2022/02/02 10:10:04;;;;;;;21.03;4.80;;;10.50;99.90;;;;;;5074136;28;20474;-76
2022/02/02 10:15:17;;;;;;;10.93;4.40;;;10.60;99.90;;;;;;5073956;28;20428;-76
2022/02/02 10:17:44;;;;;;;18.10;5.60;;;10.40;99.90;;;;;;5055703;28;20449;-76
2022/02/02 10:20:37;;;;;;;15.33;5.60;;;10.50;99.90;;;;;;5055895;28;20520;-76
2022/02/02 10:23:05;;;;;;;21.70;4.97;;;10.40;99.90;;;;;;5052653;28;20456;-76
2022/02/02 10:25:40;;;;;;;12.83;4.77;;;10.40;99.90;;;;;;5055870;28;20429;-76
2022/02/02 10:28:10;;;;;;;12.90;4.50;;;10.30;99.90;;;;;;5055571;28;20428;-76
2022/02/02 10:30:43;;;;;;;16.07;4.93;;;10.30;99.90;;;;;;5055807;28;20473;-76
2022/02/02 10:33:14;;;;;;;16.77;4.50;;;10.00;99.90;;;;;;5055497;28;20514;-76
2022/02/02 10:35:42;;;;;;;25.47;6.20;;;9.90;99.90;;;;;;5055451;28;20476;-76
2022/02/02 10:38:15;;;;;;;19.63;4.70;;;9.90;99.90;;;;;;5055081;28;20421;-76
2022/02/02 10:40:55;;;;;;;22.00;6.80;;;9.90;99.90;;;;;;5055567;28;20432;-76
2022/02/02 10:43:32;;;;;;;19.33;6.27;;;9.90;99.90;;;;;;5055289;28;20484;-76
2022/02/02 10:46:07;;;;;;;19.73;5.37;;;9.90;99.90;;;;;;5055097;28;20438;-76
2022/02/02 10:48:39;;;;;;;15.20;5.67;;;9.90;99.90;;;;;;5054815;28;20424;-76
2022/02/02 10:51:16;;;;;;;22.03;6.63;;;10.10;99.90;;;;;;5055285;28;20429;-76
2022/02/02 10:54:02;;;;;;;11.53;4.57;;;10.20;99.90;;;;;;5055161;28;20809;-76
2022/02/02 10:56:37;;;;;;;14.00;5.40;;;10.30;99.90;;;;;;5054994;28;20429;-76
2022/02/02 10:59:24;;;;;;;18.53;5.30;;;10.40;99.90;;;;;;5054991;28;20425;-76
2022/02/02 11:07:16;;;;;;;17.83;6.03;;;10.80;99.90;;;;;;5073642;28;20420;-77
2022/02/02 11:09:45;;;;;;;15.33;5.47;;;11.00;99.90;;;;;;5055628;28;20818;-77
2022/02/02 11:12:12;;;;;;;18.33;5.60;;;11.10;99.90;;;;;;5055321;28;20422;-77
2022/02/02 11:14:52;;;;;;;29.03;6.07;;;10.90;99.90;;;;;;5055497;28;20473;-76
2022/02/02 11:17:23;;;;;;;15.67;4.63;;;10.60;99.90;;;;;;5055468;28;20432;-77
2022/02/02 11:19:51;;;;;;;21.67;5.23;;;10.40;99.90;;;;;;5055306;28;20429;-76
2022/02/02 11:22:30;;;;;;;19.97;5.30;;;10.20;99.90;;;;;;5054896;28;20441;-77
2022/02/02 11:25:17;;;;;;;13.57;5.00;;;10.10;99.90;;;;;;5055137;28;20439;-77
2022/02/02 11:27:45;;;;;;;12.63;4.93;;;10.20;99.90;;;;;;5044149;28;20429;-77
2022/02/02 11:30:23;;;;;;;15.40;5.47;;;10.50;99.90;;;;;;5054586;28;20469;-76
2022/02/02 11:32:58;;;;;;;17.83;5.30;;;10.70;99.90;;;;;;5054619;28;20447;-77
2022/02/02 11:38:19;;;;;;;19.90;6.43;;;10.50;99.90;;;;;;5072614;28;20421;-77
2022/02/02 11:41:08;;;;;;;14.00;6.03;;;10.40;99.90;;;;;;5054810;28;20489;-76
2022/02/02 11:43:48;;;;;;;18.87;5.43;;;10.30;99.90;;;;;;5054709;28;20457;-76
2022/02/02 11:46:53;;;;;;;23.97;6.20;;;10.20;99.90;;;;;;5054794;28;20987;-77
2022/02/02 11:49:22;;;;;;;12.33;4.47;;;10.10;99.90;;;;;;5054835;28;21010;-77
2022/02/02 11:51:57;;;;;;;13.77;4.70;;;10.10;99.90;;;;;;5054667;28;20420;-77
2022/02/02 11:54:32;;;;;;;14.60;5.43;;;10.10;99.90;;;;;;5054613;28;20628;-76
2022/02/02 11:56:59;;;;;;;13.80;5.20;;;10.00;99.90;;;;;;5054374;28;20507;-77
2022/02/02 12:00:07;;;;;;;19.00;5.43;;;9.90;99.90;;;;;;5054195;28;20920;-77
2022/02/02 12:11:42;;;;;;;14.87;4.00;;;10.30;99.90;;;;;;5010368;28;20649;-76
2022/02/02 12:35:57;;;;;;;16.27;4.80;;;10.70;99.90;;;;;;5072106;28;20417;-76
2022/02/02 12:44:56;;;;;;;18.90;6.03;;;14.90;99.90;;;;;;5095035;28;20938;-82
2022/02/02 12:47:33;;;;;;;13.67;4.53;;;14.50;99.90;;;;;;5075567;28;20431;-81
2022/02/02 12:50:16;;;;;;;11.93;4.33;;;16.00;99.90;;;;;;5076594;28;20441;-81
2022/02/02 12:56:17;;;;;;;11.40;4.00;;;15.50;99.90;;;;;;5094591;28;20447;-81
2022/02/02 13:02:10;;;;;;;8.47;4.27;;;14.00;99.90;;;;;;5093671;28;20445;-80
2022/02/02 13:04:37;;;;;;;15.10;5.37;;;13.10;99.90;;;;;;5074048;28;20419;-80
2022/02/02 13:07:30;;;;;;;13.87;5.00;;;12.60;99.90;;;;;;5073484;28;20440;-80
2022/02/02 13:10:05;;;;;;;15.70;4.93;;;12.10;99.90;;;;;;5074678;28;20777;-80
2022/02/02 13:15:37;;;;;;;11.47;4.97;;;13.80;99.90;;;;;;5095867;28;20510;-80
2022/02/02 13:18:34;;;;;;;20.10;6.90;;;15.20;99.90;;;;;;5095505;28;20416;-81
2022/02/02 13:21:52;;;;;;;;;;;;;;;;;;;;;
2022/02/02 13:24:51;;;;;;;11.70;3.87;;;14.70;99.90;;;;;;5095349;28;20400;-80
2022/02/02 13:28:06;;;;;;;13.27;3.97;;;14.90;99.90;;;;;;5095107;28;20432;-80
2022/02/02 13:31:52;;;;;;;8.10;4.00;;;14.30;99.90;;;;;;5059185;28;20781;-80
2022/02/02 13:43:38;;;;;;;15.33;4.57;;;14.80;99.90;;;;;;5095224;28;20424;-80
2022/02/02 13:47:31;;;;;;;;;;;;;;;;;;;;;
2022/02/02 14:03:49;;;;;;;9.93;3.93;;;13.90;99.90;;;;;;5094971;28;20412;-80
2022/02/02 14:05:40;;;;;;;11.93;4.37;;;13.60;99.90;;;;;;5093851;28;20953;-80
2022/02/02 14:31:10;;;;;;;10.17;3.93;;;12.70;99.90;;;;;;5094003;28;20419;-80
2022/02/02 14:33:52;;;;;;;11.53;3.80;;;12.50;99.90;;;;;;5075616;28;20474;-80
2022/02/02 14:36:21;;;;;;;9.60;3.10;;;12.20;99.90;;;;;;5075308;28;20812;-80
2022/02/02 14:44:08;;;;;;;9.40;3.27;;;11.50;99.90;;;;;;5093581;28;20428;-81
2022/02/02 14:46:35;;;;;;;20.63;3.70;;;11.40;99.90;;;;;;5093526;28;20497;-80
2022/02/02 14:49:12;;;;;;;15.10;3.70;;;11.10;99.90;;;;;;5095187;28;20468;-80
2022/02/02 15:05:19;;;;;;;13.33;4.03;;;10.80;99.90;;;;;;5093733;28;20201;-80
2022/02/02 15:24:15;;;;;;;13.27;4.10;;;10.40;99.90;;;;;;5093732;28;20419;-80
2022/02/02 15:29:25;;;;;;;13.00;3.43;;;10.40;99.90;;;;;;5093551;28;20468;-80
2022/02/02 15:31:50;;;;;;;7.17;2.97;;;10.50;99.90;;;;;;5075068;28;20938;-80
2022/02/02 15:34:23;;;;;;;12.47;4.00;;;10.50;99.90;;;;;;5092858;28;20460;-80
2022/02/02 15:39:22;;;;;;;13.53;4.67;;;10.60;99.90;;;;;;5093246;28;20520;-80
2022/02/02 16:03:05;;;;;;;9.90;4.00;;;9.90;99.90;;;;;;5092628;28;20411;-80
2022/02/02 16:08:28;;;;;;;13.47;4.60;;;9.80;99.90;;;;;;5078607;28;20428;-80
2022/02/02 16:16:03;;;;;;;10.80;3.83;;;9.50;99.90;;;;;;5092169;28;20448;-80
2022/02/02 16:18:36;;;;;;;12.93;4.63;;;9.40;99.90;;;;;;5091844;28;20416;-80
2022/02/02 16:37:21;;;;;;;18.10;5.17;;;9.00;99.90;;;;;;5091751;28;20514;-80
2022/02/02 16:39:52;;;;;;;13.53;5.50;;;8.90;99.90;;;;;;5091960;28;20456;-80
2022/02/02 16:45:02;;;;;;;16.63;5.60;;;8.80;99.90;;;;;;5093370;28;20407;-80
2022/02/02 16:47:27;;;;;;;13.10;4.70;;;8.80;99.90;;;;;;5077568;28;20432;-79
2022/02/02 16:49:53;;;;;;;13.57;4.40;;;8.70;99.90;;;;;;5096017;28;20488;-80
2022/02/02 16:52:23;;;;;;;9.70;4.37;;;8.70;99.90;;;;;;5095716;28;20187;-80
2022/02/02 16:54:48;;;;;;;12.03;5.07;;;8.70;99.90;;;;;;5095758;28;20239;-80
2022/02/02 16:57:31;;;;;;;9.57;4.93;;;8.70;99.90;;;;;;5095715;28;20526;-80
2022/02/02 17:32:30;;;;;;;9.07;5.77;;;8.10;99.90;;;;;;5100992;28;20436;-81
2022/02/02 17:37:48;;;;;;;11.07;6.63;;;8.00;99.90;;;;;;5068900;28;20957;-81
2022/02/02 17:40:39;;;;;;;12.87;7.03;;;8.00;99.90;;;;;;5082272;28;20459;-81
2022/02/02 17:57:00;;;;;;;11.20;6.90;;;8.20;99.90;;;;;;5099894;28;20842;-80
2022/02/02 18:20:53;;;;;;;15.40;8.27;;;8.40;99.90;;;;;;5098315;28;20485;-80
2022/02/02 18:23:28;;;;;;;14.70;7.37;;;8.50;99.90;;;;;;5097931;28;20412;-81
2022/02/02 18:28:38;;;;;;;14.47;8.17;;;8.50;99.90;;;;;;5097812;28;20466;-81
2022/02/02 18:31:22;;;;;;;10.37;7.47;;;8.50;99.90;;;;;;5097689;28;20441;-79
2022/02/02 18:34:06;;;;;;;10.40;7.30;;;8.50;99.90;;;;;;5079439;28;20415;-79
2022/02/02 18:57:58;;;;;;;14.90;10.17;;;8.90;99.90;;;;;;5006605;28;20418;-78
2022/02/02 19:14:50;;;;;;;21.00;7.87;;;9.20;99.90;;;;;;5053643;28;20413;-79
2022/02/02 19:55:15;;;;;;;18.13;10.93;;;9.80;99.90;;;;;;5054804;28;20428;-78
2022/02/02 20:07:40;;;;;;;15.90;10.40;;;9.80;99.90;;;;;;5054417;28;20406;-78
2022/02/02 20:12:40;;;;;;;14.20;11.03;;;9.80;99.90;;;;;;5054107;28;20489;-78
2022/02/02 20:15:10;;;;;;;16.23;9.27;;;9.90;99.90;;;;;;5036511;28;20454;-79
2022/02/02 20:17:37;;;;;;;17.87;8.63;;;9.90;99.90;;;;;;5035770;28;20430;-79
2022/02/02 20:20:19;;;;;;;14.70;10.10;;;10.00;99.90;;;;;;5035668;28;20422;-78
2022/02/02 20:22:46;;;;;;;18.10;9.20;;;10.10;99.90;;;;;;5052838;28;20442;-78
2022/02/02 20:25:13;;;;;;;18.53;11.37;;;10.10;99.90;;;;;;5036658;28;20417;-79
2022/02/02 20:27:39;;;;;;;18.53;10.53;;;10.10;99.90;;;;;;5036530;28;20807;-78
2022/02/02 20:30:08;;;;;;;15.73;9.00;;;10.10;99.90;;;;;;5052473;28;20465;-78
2022/02/02 20:32:34;;;;;;;17.60;9.83;;;10.10;99.90;;;;;;5036409;28;20469;-78
2022/02/02 20:35:00;;;;;;;15.97;9.57;;;10.20;99.90;;;;;;5036148;28;20433;-78
2022/02/02 20:37:28;;;;;;;16.17;10.27;;;10.10;99.90;;;;;;5035562;28;20437;-79
2022/02/02 20:39:58;;;;;;;15.83;11.20;;;10.10;99.90;;;;;;5036111;28;20213;-78
2022/02/02 20:42:54;;;;;;;17.27;11.23;;;10.10;99.90;;;;;;5035716;28;20446;-79
2022/02/02 21:04:41;;;;;;;19.63;10.30;;;10.00;99.90;;;;;;5053116;28;20430;-78
2022/02/02 21:07:35;;;;;;;16.10;9.83;;;10.00;99.90;;;;;;5051681;28;20523;-78
2022/02/02 21:15:12;;;;;;;18.33;10.93;;;10.00;99.90;;;;;;5053201;28;20182;-79
2022/02/02 21:17:39;;;;;;;17.50;10.47;;;10.00;99.90;;;;;;5051517;28;20426;-77
2022/02/02 21:20:22;;;;;;;16.67;10.10;;;10.00;99.90;;;;;;5051598;28;20430;-78
2022/02/02 21:22:56;;;;;;;19.30;10.70;;;10.10;99.90;;;;;;5051544;28;20499;-78
2022/02/02 21:28:19;;;;;;;21.90;11.50;;;10.10;99.90;;;;;;4997595;28;20422;-78
2022/02/02 21:30:46;;;;;;;26.70;12.63;;;10.10;99.90;;;;;;5035496;28;20488;-78
2022/02/02 21:33:16;;;;;;;19.60;13.00;;;10.10;99.90;;;;;;5038366;28;20619;-78
2022/02/02 21:35:43;;;;;;;15.53;9.03;;;10.10;99.90;;;;;;5038344;28;20430;-78
2022/02/02 21:38:55;;;;;;;20.27;12.20;;;10.20;99.90;;;;;;5038354;28;20940;-78
2022/02/02 21:41:01;;;;;;;19.17;12.90;;;10.20;99.90;;;;;;5050910;28;20769;-78
2022/02/02 21:43:30;;;;;;;16.37;11.70;;;10.20;99.90;;;;;;5037993;28;20442;-78
2022/02/02 21:45:56;;;;;;;17.37;10.37;;;10.20;99.90;;;;;;5054526;28;20186;-78
2022/02/02 21:48:26;;;;;;;16.90;11.10;;;10.20;99.90;;;;;;5054075;28;20449;-79
2022/02/02 21:51:00;;;;;;;18.97;11.50;;;10.20;99.90;;;;;;5054367;28;20477;-78
2022/02/02 21:53:26;;;;;;;19.30;11.13;;;10.20;99.90;;;;;;5037717;28;20529;-79
2022/02/02 21:55:52;;;;;;;25.10;12.80;;;10.20;99.90;;;;;;5037517;28;20477;-78
2022/02/02 21:58:18;;;;;;;19.80;12.20;;;10.20;99.90;;;;;;5037536;28;20237;-79
2022/02/02 22:00:44;;;;;;;22.93;14.00;;;10.20;99.90;;;;;;5037575;28;20212;-80
2022/02/02 22:03:11;;;;;;;19.40;13.20;;;10.20;99.90;;;;;;5054270;28;20199;-79
2022/02/02 22:05:38;;;;;;;20.13;12.67;;;10.10;99.90;;;;;;5054069;28;20496;-79
2022/02/02 22:08:08;;;;;;;22.40;12.43;;;10.10;99.90;;;;;;5053597;28;20839;-78
2022/02/02 22:10:35;;;;;;;18.50;12.80;;;10.10;99.90;;;;;;5054088;28;20470;-79
2022/02/02 22:13:00;;;;;;;20.17;11.90;;;10.10;99.90;;;;;;5053598;28;20442;-78
2022/02/02 22:15:30;;;;;;;22.57;13.80;;;10.10;99.90;;;;;;5036774;28;20432;-78
2022/02/02 22:17:56;;;;;;;24.80;13.93;;;10.10;99.90;;;;;;5037056;28;20183;-78
2022/02/02 22:20:22;;;;;;;25.60;13.67;;;10.10;99.90;;;;;;5036916;28;20928;-79
2022/02/02 22:22:48;;;;;;;24.07;13.50;;;10.00;99.90;;;;;;5036910;28;20218;-78
2022/02/02 22:25:18;;;;;;;24.20;13.70;;;10.00;99.90;;;;;;5036800;28;20422;-79
2022/02/02 22:27:44;;;;;;;24.97;13.00;;;10.00;99.90;;;;;;5053589;28;20245;-78
2022/02/02 22:30:10;;;;;;;24.87;12.50;;;10.00;99.90;;;;;;5036571;28;20485;-80
2022/02/02 22:32:36;;;;;;;23.87;14.27;;;10.00;99.90;;;;;;5053589;28;20249;-77
2022/02/02 22:35:03;;;;;;;19.60;12.13;;;9.90;99.90;;;;;;5036743;28;20835;-79
2022/02/02 22:37:29;;;;;;;21.00;11.70;;;9.90;99.90;;;;;;5053099;28;20223;-78
2022/02/02 22:39:56;;;;;;;27.50;15.17;;;9.90;99.90;;;;;;5036686;28;20513;-78
2022/02/02 22:42:24;;;;;;;22.03;11.07;;;9.90;99.90;;;;;;5052136;28;20540;-78
2022/02/02 22:44:52;;;;;;;22.80;12.33;;;9.90;99.90;;;;;;5036112;28;20872;-78
2022/02/02 22:47:20;;;;;;;21.23;13.07;;;9.90;99.90;;;;;;5036516;28;20571;-79
2022/02/02 22:49:49;;;;;;;22.10;12.37;;;9.90;99.90;;;;;;5036125;28;20838;-78
2022/02/02 22:52:16;;;;;;;22.87;12.77;;;10.00;99.90;;;;;;5053009;28;20521;-77
2022/02/02 22:54:42;;;;;;;24.03;14.57;;;10.00;99.90;;;;;;5053129;28;20418;-77
2022/02/02 22:57:08;;;;;;;23.20;13.00;;;10.00;99.90;;;;;;5036302;28;20516;-79
2022/02/02 22:59:36;;;;;;;20.50;12.40;;;10.00;99.90;;;;;;5053324;28;20501;-78
2022/02/02 23:02:15;;;;;;;21.87;11.97;;;10.00;99.90;;;;;;5052825;28;20440;-77
2022/02/02 23:04:43;;;;;;;23.30;14.30;;;10.00;99.90;;;;;;5053056;28;20507;-78
2022/02/02 23:07:09;;;;;;;23.50;13.33;;;10.00;99.90;;;;;;5036167;28;20429;-79
2022/02/02 23:09:36;;;;;;;21.10;12.70;;;10.10;99.90;;;;;;5036223;28;20462;-78
2022/02/02 23:12:02;;;;;;;19.90;12.50;;;10.10;99.90;;;;;;5036206;28;20180;-79
2022/02/02 23:14:33;;;;;;;20.40;12.30;;;10.00;99.90;;;;;;5036053;28;20986;-78
2022/02/02 23:17:00;;;;;;;23.17;11.27;;;10.00;99.90;;;;;;5036092;28;20422;-78
2022/02/02 23:19:25;;;;;;;22.00;13.30;;;10.00;99.90;;;;;;5036353;28;20487;-77
2022/02/02 23:21:51;;;;;;;17.53;11.40;;;9.90;99.90;;;;;;5036595;28;20807;-77
2022/02/02 23:24:18;;;;;;;22.67;12.47;;;9.90;99.90;;;;;;5036369;28;20682;-79
2022/02/02 23:26:48;;;;;;;20.13;12.77;;;10.00;99.90;;;;;;5052596;28;20561;-77
2022/02/02 23:29:17;;;;;;;22.30;10.93;;;9.90;99.90;;;;;;5036278;28;20903;-77
2022/02/02 23:31:44;;;;;;;21.07;12.33;;;10.00;99.90;;;;;;5052672;28;20513;-78
2022/02/02 23:34:13;;;;;;;22.47;11.20;;;9.90;99.90;;;;;;5052552;28;20887;-77
2022/02/02 23:36:40;;;;;;;19.60;11.00;;;10.00;99.90;;;;;;5052141;28;20456;-77
2022/02/02 23:39:06;;;;;;;19.20;11.10;;;9.90;99.90;;;;;;5036090;28;20422;-77
2022/02/02 23:43:58;;;;;;;22.70;12.13;;;9.90;99.90;;;;;;5053941;28;20467;-78
2022/02/02 23:46:28;;;;;;;22.67;13.20;;;9.80;99.90;;;;;;5035668;28;20426;-78
2022/02/02 23:49:09;;;;;;;19.23;11.50;;;9.90;99.90;;;;;;5035924;28;20418;-78